Time;durP1;ratioP1;P1;durP2;ratioP2;P2;SDS_P1;SDS_P2;PMS_P1;PMS_P2;Temp;Humidity;BMP_temperature;BMP_pressure;BME280_temperature;BME280_humidity;BME280_pressure;Samples;Min_cycle;Max_cycle;Signal;HPM_P1;HPM_P2
2023/03/31 00:00:12;;;;;;;6.40;2.00;;;9.80;99.90;;;;;;5024642;28;20508;-70
2023/03/31 00:02:40;;;;;;;7.03;2.00;;;9.80;99.90;;;;;;5024211;28;20505;-70
2023/03/31 00:05:09;;;;;;;4.03;2.17;;;9.80;99.90;;;;;;5022847;28;20483;-70
2023/03/31 00:07:36;;;;;;;3.07;1.97;;;9.70;99.90;;;;;;5022843;28;20504;-70
2023/03/31 00:10:04;;;;;;;7.93;2.33;;;9.70;99.90;;;;;;5031891;28;20480;-70
2023/03/31 00:12:30;;;;;;;11.00;2.20;;;9.70;99.90;;;;;;5027896;28;20451;-70
2023/03/31 00:14:57;;;;;;;4.67;2.00;;;9.60;99.90;;;;;;5028127;28;20482;-70
2023/03/31 00:17:24;;;;;;;6.40;2.10;;;9.60;99.90;;;;;;5024991;28;20563;-70
2023/03/31 00:19:50;;;;;;;4.73;2.00;;;9.60;99.90;;;;;;5024324;28;20454;-70
2023/03/31 00:22:20;;;;;;;5.87;2.03;;;9.60;99.90;;;;;;5030662;28;20521;-70
2023/03/31 00:24:47;;;;;;;5.07;1.87;;;9.70;99.90;;;;;;5028790;28;20474;-69
2023/03/31 00:27:14;;;;;;;3.93;2.00;;;9.70;99.90;;;;;;5022497;28;20484;-70
2023/03/31 00:29:42;;;;;;;7.43;2.10;;;9.60;99.90;;;;;;5022384;28;21027;-70
2023/03/31 00:32:09;;;;;;;6.70;2.07;;;9.70;99.90;;;;;;5023044;28;20888;-70
2023/03/31 00:34:36;;;;;;;3.77;2.00;;;9.70;99.90;;;;;;5030851;28;20513;-70
2023/03/31 00:37:02;;;;;;;3.50;1.93;;;9.70;99.90;;;;;;5028125;28;20485;-70
2023/03/31 00:39:34;;;;;;;15.97;2.47;;;9.60;99.90;;;;;;5028120;28;20450;-70
2023/03/31 00:42:02;;;;;;;6.47;2.47;;;9.70;99.90;;;;;;5029742;28;20458;-70
2023/03/31 00:44:32;;;;;;;4.27;1.77;;;9.70;99.90;;;;;;5023377;28;20968;-70
2023/03/31 00:47:03;;;;;;;7.60;2.10;;;9.70;99.90;;;;;;5024639;28;20509;-70
2023/03/31 00:49:32;;;;;;;7.00;2.50;;;9.60;99.90;;;;;;5028054;28;20516;-70
2023/03/31 00:52:04;;;;;;;7.83;2.13;;;9.60;99.90;;;;;;5027791;28;20941;-70
2023/03/31 00:54:35;;;;;;;4.57;2.10;;;9.60;99.90;;;;;;5027920;28;20486;-70
2023/03/31 00:57:05;;;;;;;7.40;2.70;;;9.60;99.90;;;;;;5022678;28;20464;-70
2023/03/31 00:59:36;;;;;;;5.50;2.20;;;9.60;99.90;;;;;;5023486;28;20473;-70
2023/03/31 01:02:03;;;;;;;5.90;2.20;;;9.60;99.90;;;;;;5030511;28;20512;-70
2023/03/31 01:04:35;;;;;;;8.40;2.70;;;9.60;99.90;;;;;;5028938;28;20504;-70
2023/03/31 01:07:08;;;;;;;5.10;2.40;;;9.60;99.90;;;;;;5022167;28;20471;-71
2023/03/31 01:09:37;;;;;;;7.83;2.23;;;9.60;99.90;;;;;;5030302;28;20449;-70
2023/03/31 01:12:08;;;;;;;9.63;2.67;;;9.60;99.90;;;;;;5023936;28;20984;-70
2023/03/31 01:14:35;;;;;;;6.77;2.50;;;9.50;99.90;;;;;;5025768;28;20899;-70
2023/03/31 01:17:02;;;;;;;6.90;2.73;;;9.50;99.90;;;;;;5025360;28;20506;-70
2023/03/31 01:19:39;;;;;;;9.13;2.70;;;9.60;99.90;;;;;;5027999;28;20454;-70
2023/03/31 01:22:40;;;;;;;5.13;2.17;;;9.60;99.90;;;;;;5025529;28;20464;-70
2023/03/31 01:25:41;;;;;;;8.67;2.40;;;9.60;99.90;;;;;;5015554;28;20474;-70
2023/03/31 01:28:23;;;;;;;12.63;2.70;;;9.60;99.90;;;;;;5018544;28;20501;-70
2023/03/31 01:31:34;;;;;;;13.07;2.80;;;9.70;99.90;;;;;;5023366;28;20958;-70
2023/03/31 01:34:21;;;;;;;6.60;2.20;;;9.70;99.90;;;;;;5027040;28;20458;-70
2023/03/31 01:37:20;;;;;;;4.20;2.40;;;9.60;99.90;;;;;;5021709;28;20959;-70
2023/03/31 01:40:07;;;;;;;7.43;2.40;;;9.70;99.90;;;;;;5025545;28;20476;-70
2023/03/31 01:42:36;;;;;;;8.37;2.57;;;9.70;99.90;;;;;;5027711;28;20545;-70
2023/03/31 01:45:12;;;;;;;8.90;2.13;;;9.70;99.90;;;;;;5027345;28;20527;-70
2023/03/31 01:47:45;;;;;;;12.57;3.10;;;9.70;99.90;;;;;;5027826;28;20449;-70
2023/03/31 01:50:20;;;;;;;13.67;3.10;;;9.70;99.90;;;;;;5024784;28;20504;-70
2023/03/31 01:52:52;;;;;;;9.10;2.93;;;9.70;99.90;;;;;;5023134;28;20457;-71
2023/03/31 01:55:24;;;;;;;5.70;2.90;;;9.70;99.90;;;;;;5029645;28;20479;-70
2023/03/31 01:57:54;;;;;;;13.03;3.90;;;9.60;99.90;;;;;;5028230;28;20569;-70
2023/03/31 02:00:28;;;;;;;14.37;2.93;;;9.70;99.90;;;;;;5024949;28;20451;-70
2023/03/31 02:03:01;;;;;;;6.10;2.53;;;9.70;99.90;;;;;;5021906;28;20463;-70
2023/03/31 02:05:33;;;;;;;9.63;2.50;;;9.70;99.90;;;;;;5027696;28;20487;-70
2023/03/31 02:08:05;;;;;;;10.87;2.60;;;9.70;99.90;;;;;;5025249;28;20506;-70
2023/03/31 02:10:35;;;;;;;3.90;2.60;;;9.80;99.90;;;;;;5028192;28;20455;-70
2023/03/31 02:13:03;;;;;;;12.13;2.80;;;9.80;99.90;;;;;;5023384;28;20453;-70
2023/03/31 02:15:35;;;;;;;7.03;2.40;;;9.80;99.90;;;;;;5023953;28;20475;-70
2023/03/31 02:18:04;;;;;;;9.90;3.40;;;9.80;99.90;;;;;;5016896;28;20586;-70
2023/03/31 02:20:33;;;;;;;3.73;2.40;;;9.80;99.90;;;;;;5019219;28;20487;-70
2023/03/31 02:23:00;;;;;;;5.30;2.43;;;9.80;99.90;;;;;;5029427;28;20454;-71
2023/03/31 02:25:33;;;;;;;3.57;2.60;;;9.80;99.90;;;;;;5025580;28;20533;-71
2023/03/31 02:28:06;;;;;;;7.77;2.80;;;9.80;99.90;;;;;;5023652;28;20471;-71
2023/03/31 02:30:38;;;;;;;10.43;2.87;;;9.80;99.90;;;;;;5026142;28;20874;-70
2023/03/31 02:33:05;;;;;;;3.50;2.50;;;9.80;99.90;;;;;;5025592;28;20460;-70
2023/03/31 02:35:35;;;;;;;15.43;2.80;;;9.80;99.90;;;;;;5024751;28;20478;-71
2023/03/31 02:38:05;;;;;;;6.07;2.13;;;9.80;99.90;;;;;;5031936;28;20565;-71
2023/03/31 02:40:32;;;;;;;12.40;3.40;;;9.70;99.90;;;;;;5027784;28;20456;-71
2023/03/31 02:42:59;;;;;;;5.93;2.67;;;9.70;99.90;;;;;;5031421;28;20459;-70
2023/03/31 02:45:44;;;;;;;13.87;4.37;;;9.70;99.90;;;;;;5021145;28;20514;-69
2023/03/31 02:48:16;;;;;;;10.80;6.13;;;9.60;99.90;;;;;;5022424;28;20508;-70
2023/03/31 02:51:09;;;;;;;15.60;6.23;;;9.70;99.90;;;;;;5031008;28;20462;-69
2023/03/31 02:53:46;;;;;;;12.60;6.87;;;9.50;99.90;;;;;;5029984;28;20450;-69
2023/03/31 02:56:30;;;;;;;13.17;7.13;;;9.50;99.90;;;;;;5028778;28;20492;-69
2023/03/31 02:59:15;;;;;;;12.60;6.87;;;9.40;99.90;;;;;;5024202;28;20490;-70
2023/03/31 03:02:01;;;;;;;13.50;7.20;;;9.30;99.90;;;;;;5032336;28;20462;-71
2023/03/31 03:04:42;;;;;;;21.37;8.30;;;9.30;99.90;;;;;;5031547;28;20492;-71
2023/03/31 03:07:16;;;;;;;15.80;7.60;;;9.30;99.90;;;;;;5024399;28;20454;-71
2023/03/31 03:09:52;;;;;;;20.93;7.30;;;9.30;99.90;;;;;;5028875;28;20489;-70
2023/03/31 03:12:25;;;;;;;18.13;7.43;;;9.30;99.90;;;;;;5026543;28;20511;-70
2023/03/31 03:14:55;;;;;;;16.53;6.63;;;9.30;99.90;;;;;;5028576;28;20535;-70
2023/03/31 03:17:28;;;;;;;17.87;7.90;;;9.40;99.90;;;;;;5022096;28;20537;-70
2023/03/31 03:19:56;;;;;;;24.57;8.00;;;9.40;99.90;;;;;;5028320;28;20490;-70
2023/03/31 03:22:23;;;;;;;15.20;7.83;;;9.40;99.90;;;;;;5028564;28;20454;-70
2023/03/31 03:24:51;;;;;;;14.43;7.30;;;9.40;99.90;;;;;;5027978;28;20487;-70
2023/03/31 03:27:18;;;;;;;16.13;7.87;;;9.40;99.90;;;;;;5030398;28;20463;-70
2023/03/31 03:29:44;;;;;;;14.73;7.50;;;9.30;99.90;;;;;;5030751;28;20518;-70
2023/03/31 03:32:11;;;;;;;17.07;6.90;;;9.40;99.90;;;;;;5030508;28;20504;-70
2023/03/31 03:34:39;;;;;;;13.27;7.30;;;9.40;99.90;;;;;;5027417;28;20474;-70
2023/03/31 03:37:06;;;;;;;16.50;8.13;;;9.30;99.90;;;;;;5026788;28;20455;-70
2023/03/31 03:39:33;;;;;;;21.83;7.80;;;9.30;99.90;;;;;;5024567;28;20498;-70
2023/03/31 03:42:00;;;;;;;17.80;8.00;;;9.30;99.90;;;;;;5028234;28;20516;-70
2023/03/31 03:44:26;;;;;;;25.00;8.63;;;9.20;99.90;;;;;;5030238;28;20954;-70
2023/03/31 03:46:53;;;;;;;18.60;8.70;;;9.20;99.90;;;;;;5031131;28;20450;-70
2023/03/31 03:49:20;;;;;;;17.40;8.43;;;9.20;99.90;;;;;;5028174;28;20457;-70
2023/03/31 03:51:48;;;;;;;17.67;8.87;;;9.20;99.90;;;;;;5023670;28;20454;-70
2023/03/31 03:54:14;;;;;;;18.50;8.40;;;9.20;99.90;;;;;;5021335;28;20496;-70
2023/03/31 03:56:41;;;;;;;26.70;10.07;;;9.20;99.90;;;;;;5027825;28;20462;-70
2023/03/31 03:59:08;;;;;;;19.03;8.60;;;9.20;99.90;;;;;;5027461;28;20734;-70
2023/03/31 04:01:34;;;;;;;18.00;8.20;;;9.20;99.90;;;;;;5028839;28;20456;-70
2023/03/31 04:04:01;;;;;;;13.07;8.20;;;9.20;99.90;;;;;;5024588;28;20544;-70
2023/03/31 04:06:28;;;;;;;14.10;7.87;;;9.10;99.90;;;;;;5021391;28;20470;-70
2023/03/31 04:08:56;;;;;;;17.17;7.87;;;9.10;99.90;;;;;;5030266;28;20516;-71
2023/03/31 04:11:22;;;;;;;14.40;8.10;;;9.10;99.90;;;;;;5027819;28;20461;-70
2023/03/31 04:13:49;;;;;;;20.20;7.73;;;9.20;99.90;;;;;;5027367;28;20853;-71
2023/03/31 04:16:16;;;;;;;22.93;7.83;;;9.20;99.90;;;;;;5030879;28;21004;-71
2023/03/31 04:18:43;;;;;;;14.87;7.20;;;9.20;99.90;;;;;;5030977;28;20539;-70
2023/03/31 04:21:14;;;;;;;19.80;7.80;;;9.20;99.90;;;;;;5017927;28;20508;-70
2023/03/31 04:23:45;;;;;;;16.57;7.83;;;9.20;99.90;;;;;;5027482;28;20476;-70
2023/03/31 04:26:13;;;;;;;19.10;7.50;;;9.10;99.90;;;;;;5028978;28;20568;-71
2023/03/31 04:28:41;;;;;;;12.30;8.67;;;9.20;99.90;;;;;;5026115;28;20466;-70
2023/03/31 04:31:15;;;;;;;14.60;9.77;;;9.10;99.90;;;;;;5028714;28;20459;-70
2023/03/31 04:33:45;;;;;;;31.57;11.33;;;9.10;99.90;;;;;;5026921;28;20499;-71
2023/03/31 04:36:16;;;;;;;25.33;11.60;;;9.10;99.90;;;;;;5025808;28;20489;-71
2023/03/31 04:38:45;;;;;;;21.33;10.83;;;9.10;99.90;;;;;;5029101;28;20492;-71
2023/03/31 04:41:13;;;;;;;21.83;10.30;;;9.20;99.90;;;;;;5028160;28;20513;-71
2023/03/31 04:43:40;;;;;;;20.10;10.83;;;9.20;99.90;;;;;;5023833;28;20942;-71
2023/03/31 04:46:07;;;;;;;27.83;11.40;;;9.20;99.90;;;;;;5027438;28;20474;-71
2023/03/31 04:48:33;;;;;;;34.97;15.50;;;9.20;99.90;;;;;;5023301;28;20457;-71
2023/03/31 04:51:00;;;;;;;29.27;14.67;;;9.20;99.90;;;;;;5027604;28;20458;-71
2023/03/31 04:53:27;;;;;;;28.30;15.13;;;9.20;99.90;;;;;;5025704;28;20461;-71
2023/03/31 04:55:54;;;;;;;31.67;14.90;;;9.10;99.90;;;;;;5023229;28;20540;-71
2023/03/31 04:58:22;;;;;;;24.67;12.90;;;9.10;99.90;;;;;;5023947;28;20469;-71
2023/03/31 05:00:49;;;;;;;29.87;13.50;;;9.10;99.90;;;;;;5024045;28;21012;-71
2023/03/31 05:03:15;;;;;;;24.57;13.10;;;9.10;99.90;;;;;;5030330;28;20462;-71
2023/03/31 05:05:42;;;;;;;30.10;13.97;;;9.10;99.90;;;;;;5027781;28;20485;-71
2023/03/31 05:08:08;;;;;;;34.23;13.37;;;9.10;99.90;;;;;;5025938;28;20480;-71
2023/03/31 05:10:35;;;;;;;33.93;12.23;;;9.10;99.90;;;;;;5025917;28;20458;-69
2023/03/31 05:13:02;;;;;;;26.70;11.67;;;9.20;99.90;;;;;;5026651;28;20574;-70
2023/03/31 05:15:30;;;;;;;30.90;13.30;;;9.10;99.90;;;;;;5022022;28;20742;-72
2023/03/31 05:17:58;;;;;;;28.07;12.80;;;9.10;99.90;;;;;;5019542;28;20457;-73
2023/03/31 05:20:24;;;;;;;20.80;11.00;;;9.20;99.90;;;;;;5021059;28;20498;-73
2023/03/31 05:22:52;;;;;;;17.00;11.20;;;9.20;99.90;;;;;;5023912;28;20467;-73
2023/03/31 05:25:18;;;;;;;21.00;9.83;;;9.30;99.90;;;;;;5020092;28;20748;-73
2023/03/31 05:27:46;;;;;;;14.77;7.90;;;9.20;99.90;;;;;;5029401;28;20959;-72
2023/03/31 05:30:14;;;;;;;17.93;10.33;;;9.20;99.90;;;;;;5027886;28;20819;-74
2023/03/31 05:32:42;;;;;;;16.10;9.10;;;9.20;99.90;;;;;;5027808;28;20457;-74
2023/03/31 05:35:09;;;;;;;24.77;8.67;;;9.20;99.90;;;;;;5010191;28;20479;-75
2023/03/31 05:37:37;;;;;;;13.07;8.40;;;9.20;99.90;;;;;;5011881;28;21004;-75
2023/03/31 05:40:04;;;;;;;20.53;8.87;;;9.20;99.90;;;;;;5015652;28;20479;-74
2023/03/31 05:42:31;;;;;;;20.97;8.80;;;9.20;99.90;;;;;;5026482;28;20489;-74
2023/03/31 05:44:58;;;;;;;19.50;9.20;;;9.20;99.90;;;;;;5029946;28;20511;-74
2023/03/31 05:47:24;;;;;;;25.10;9.70;;;9.10;99.90;;;;;;5018955;28;20470;-75
2023/03/31 05:49:52;;;;;;;13.40;8.00;;;9.10;99.90;;;;;;5025679;28;20451;-74
2023/03/31 05:52:19;;;;;;;24.23;7.90;;;9.10;99.90;;;;;;5009487;28;20548;-74
2023/03/31 05:54:46;;;;;;;55.63;10.53;;;9.10;99.90;;;;;;5010245;28;20471;-74
2023/03/31 05:57:12;;;;;;;38.17;8.90;;;9.20;99.90;;;;;;5022021;28;20466;-73
2023/03/31 05:59:41;;;;;;;44.50;10.63;;;9.20;99.90;;;;;;5030092;28;20489;-74
2023/03/31 06:02:08;;;;;;;30.20;7.20;;;9.20;99.90;;;;;;5030252;28;20465;-74
2023/03/31 06:04:35;;;;;;;16.93;5.90;;;9.20;99.90;;;;;;5028918;28;20481;-74
2023/03/31 06:07:04;;;;;;;13.20;4.50;;;9.20;99.90;;;;;;5015994;28;20466;-74
2023/03/31 06:09:30;;;;;;;8.47;3.37;;;9.20;99.90;;;;;;5025188;28;20474;-74
2023/03/31 06:11:57;;;;;;;18.40;4.27;;;9.20;99.90;;;;;;5014112;28;21017;-68
2023/03/31 06:14:24;;;;;;;13.20;3.93;;;9.10;99.90;;;;;;5015101;28;20473;-67
2023/03/31 06:16:50;;;;;;;10.00;3.33;;;9.20;99.90;;;;;;5022596;28;20450;-67
2023/03/31 06:19:17;;;;;;;9.53;3.37;;;9.30;99.90;;;;;;5017114;28;20501;-68
2023/03/31 06:21:44;;;;;;;9.70;3.47;;;9.30;99.90;;;;;;5017967;28;20449;-67
2023/03/31 06:24:12;;;;;;;11.90;3.43;;;9.30;99.90;;;;;;5019506;28;20462;-67
2023/03/31 06:26:38;;;;;;;19.07;4.10;;;9.30;99.90;;;;;;5014436;28;20507;-66
2023/03/31 06:29:05;;;;;;;8.40;3.07;;;9.30;99.90;;;;;;5014247;28;20463;-67
2023/03/31 06:31:32;;;;;;;12.73;3.50;;;9.30;99.90;;;;;;5016222;28;20455;-67
2023/03/31 06:33:58;;;;;;;9.80;4.33;;;9.50;99.90;;;;;;5026525;28;20453;-67
2023/03/31 06:36:25;;;;;;;13.83;7.53;;;9.70;99.90;;;;;;5034100;28;20467;-67
2023/03/31 06:38:52;;;;;;;19.97;9.23;;;9.90;99.90;;;;;;5034039;28;20893;-67
2023/03/31 06:41:21;;;;;;;19.43;7.00;;;9.80;99.90;;;;;;5033691;28;20450;-67
2023/03/31 06:43:47;;;;;;;17.83;6.30;;;9.80;99.90;;;;;;5033695;28;20449;-66
2023/03/31 06:46:14;;;;;;;20.57;8.00;;;9.80;99.90;;;;;;5033472;28;20496;-67
2023/03/31 06:48:41;;;;;;;19.77;9.70;;;9.90;99.90;;;;;;5033575;28;20448;-67
2023/03/31 06:51:08;;;;;;;16.03;6.20;;;9.90;99.90;;;;;;5033995;28;20446;-67
2023/03/31 06:53:36;;;;;;;17.37;5.70;;;9.80;99.90;;;;;;5033528;28;20442;-67
2023/03/31 06:56:03;;;;;;;15.73;5.07;;;9.70;99.90;;;;;;5033602;28;20962;-67
2023/03/31 06:58:32;;;;;;;17.17;5.67;;;9.70;99.90;;;;;;5033761;28;21021;-67
2023/03/31 07:00:59;;;;;;;16.60;5.13;;;9.70;99.90;;;;;;5032910;28;20486;-67
2023/03/31 07:03:25;;;;;;;16.77;5.47;;;9.80;99.90;;;;;;5025372;28;20458;-73
2023/03/31 07:05:53;;;;;;;10.33;5.47;;;9.70;99.90;;;;;;5013516;28;20529;-74
2023/03/31 07:08:20;;;;;;;14.60;5.50;;;9.70;99.90;;;;;;5021245;28;20516;-73
2023/03/31 07:10:48;;;;;;;8.40;5.10;;;9.60;99.90;;;;;;5033510;28;20771;-73
2023/03/31 07:13:15;;;;;;;21.13;4.90;;;9.60;99.90;;;;;;5033555;28;20476;-74
2023/03/31 07:15:44;;;;;;;14.50;6.47;;;9.60;99.90;;;;;;5028467;28;20497;-74
2023/03/31 07:18:11;;;;;;;9.73;5.73;;;9.60;99.90;;;;;;5023737;28;20882;-74
2023/03/31 07:20:38;;;;;;;13.80;5.70;;;9.60;99.90;;;;;;5016981;28;20495;-74
2023/03/31 07:23:07;;;;;;;11.77;6.93;;;9.60;99.90;;;;;;5032407;28;20462;-74
2023/03/31 07:25:34;;;;;;;11.33;6.07;;;9.60;99.90;;;;;;5024071;28;20501;-73
2023/03/31 07:28:00;;;;;;;12.93;6.20;;;9.50;99.90;;;;;;5013889;28;20467;-74
2023/03/31 07:30:27;;;;;;;13.07;6.20;;;9.50;99.90;;;;;;5013636;28;20931;-73
2023/03/31 07:32:55;;;;;;;7.70;4.77;;;9.40;99.90;;;;;;5013395;28;20455;-72
2023/03/31 07:35:23;;;;;;;11.30;6.60;;;9.30;99.90;;;;;;5012852;28;20478;-72
2023/03/31 07:37:51;;;;;;;15.53;6.40;;;9.30;99.90;;;;;;5013231;28;20455;-71
2023/03/31 07:40:19;;;;;;;17.23;5.97;;;9.30;99.90;;;;;;5031828;28;20493;-71
2023/03/31 07:42:47;;;;;;;9.40;5.30;;;9.30;99.90;;;;;;5032059;28;20459;-72
2023/03/31 07:45:15;;;;;;;11.27;5.27;;;9.30;99.90;;;;;;5030659;28;20514;-71
2023/03/31 07:47:42;;;;;;;8.20;4.70;;;9.30;99.90;;;;;;5032094;28;20953;-71
2023/03/31 07:50:10;;;;;;;5.87;3.17;;;9.20;99.90;;;;;;5031823;28;20455;-72
2023/03/31 07:52:37;;;;;;;44.87;6.47;;;9.20;99.90;;;;;;5031804;28;20443;-72
2023/03/31 07:55:04;;;;;;;16.37;5.00;;;9.20;99.90;;;;;;5032266;28;20474;-73
2023/03/31 07:57:31;;;;;;;3.30;3.10;;;9.20;99.90;;;;;;5032129;28;20503;-72
2023/03/31 07:59:57;;;;;;;6.47;3.53;;;9.30;99.90;;;;;;5023864;28;20544;-72
2023/03/31 08:02:24;;;;;;;7.43;3.30;;;9.30;99.90;;;;;;5031736;28;20484;-72
2023/03/31 08:04:51;;;;;;;6.63;3.03;;;9.30;99.90;;;;;;5022401;28;20563;-72
2023/03/31 08:07:19;;;;;;;6.23;2.77;;;9.30;99.90;;;;;;5011871;28;20459;-71
2023/03/31 08:09:47;;;;;;;5.33;3.23;;;9.30;99.90;;;;;;5011776;28;20826;-73
2023/03/31 08:12:14;;;;;;;2.47;2.27;;;9.40;99.90;;;;;;5012095;28;20457;-73
2023/03/31 08:14:41;;;;;;;4.97;3.47;;;9.60;99.90;;;;;;5012271;28;21009;-73
2023/03/31 08:17:08;;;;;;;5.50;3.73;;;9.60;99.90;;;;;;5026868;28;20491;-71
2023/03/31 08:19:34;;;;;;;11.90;5.60;;;9.70;99.90;;;;;;5016148;28;20486;-71
2023/03/31 08:22:01;;;;;;;13.13;6.60;;;9.70;99.90;;;;;;5031221;28;20454;-71
2023/03/31 08:24:29;;;;;;;10.93;6.97;;;9.70;99.90;;;;;;5031105;28;20458;-71
2023/03/31 08:26:56;;;;;;;18.23;7.50;;;9.80;99.90;;;;;;5030659;28;21022;-72
2023/03/31 08:29:22;;;;;;;11.30;6.50;;;9.90;99.90;;;;;;5030919;28;20460;-71
2023/03/31 08:31:49;;;;;;;15.50;5.87;;;10.00;99.90;;;;;;5029771;28;20520;-72
2023/03/31 08:34:16;;;;;;;10.77;6.37;;;10.10;99.90;;;;;;5016351;28;20452;-71
2023/03/31 08:36:42;;;;;;;9.47;6.30;;;10.30;99.90;;;;;;5011468;28;20458;-71
2023/03/31 08:39:09;;;;;;;14.50;5.43;;;10.40;99.90;;;;;;5011736;28;20458;-72
2023/03/31 08:41:49;;;;;;;5.03;4.20;;;10.60;99.90;;;;;;5011221;28;20488;-71
2023/03/31 08:44:21;;;;;;;6.77;4.03;;;10.90;99.90;;;;;;5011068;28;20826;-72
2023/03/31 08:46:51;;;;;;;6.17;3.60;;;11.00;99.90;;;;;;5019971;28;20456;-72
2023/03/31 08:49:20;;;;;;;3.97;3.10;;;11.20;99.90;;;;;;5030936;28;20457;-72
2023/03/31 08:51:51;;;;;;;4.50;3.30;;;11.30;99.90;;;;;;5030876;28;20955;-75
2023/03/31 08:54:25;;;;;;;4.77;3.63;;;11.70;99.90;;;;;;5020957;28;20867;-75
2023/03/31 08:56:53;;;;;;;5.43;3.87;;;11.90;99.90;;;;;;5009782;28;20450;-75
2023/03/31 08:59:29;;;;;;;3.20;2.63;;;12.30;99.90;;;;;;5013857;28;20967;-75
2023/03/31 09:02:01;;;;;;;2.70;1.97;;;12.60;99.90;;;;;;5026989;28;20451;-75
2023/03/31 09:04:51;;;;;;;1.70;1.60;;;12.70;99.90;;;;;;5023616;28;20454;-75
2023/03/31 09:07:29;;;;;;;4.97;2.00;;;12.70;99.90;;;;;;5011352;28;20551;-75
2023/03/31 09:10:02;;;;;;;3.93;1.63;;;12.70;99.90;;;;;;5015893;28;20462;-75
2023/03/31 09:12:39;;;;;;;1.60;1.50;;;12.80;99.90;;;;;;5011447;28;20501;-75
2023/03/31 09:15:10;;;;;;;2.13;1.90;;;13.00;99.90;;;;;;5023351;28;20481;-75
2023/03/31 09:17:41;;;;;;;1.63;1.50;;;13.20;99.90;;;;;;5015566;28;20455;-75
2023/03/31 09:20:16;;;;;;;3.43;1.63;;;13.40;99.90;;;;;;5017948;28;20486;-75
2023/03/31 09:22:46;;;;;;;4.90;1.80;;;13.70;99.90;;;;;;5018177;28;20499;-75
2023/03/31 09:25:18;;;;;;;4.30;1.83;;;13.70;99.90;;;;;;5030369;28;20469;-75
2023/03/31 09:27:48;;;;;;;3.37;1.80;;;13.60;99.90;;;;;;5030445;28;20858;-75
2023/03/31 09:30:19;;;;;;;3.63;2.03;;;13.40;99.90;;;;;;5030667;28;21009;-74
2023/03/31 09:32:50;;;;;;;7.07;2.80;;;13.30;99.90;;;;;;5028771;28;20458;-74
2023/03/31 09:35:20;;;;;;;4.13;2.00;;;13.50;99.90;;;;;;5030660;28;20555;-75
2023/03/31 09:37:48;;;;;;;5.73;2.30;;;13.70;99.90;;;;;;5030628;28;20557;-75
2023/03/31 09:40:17;;;;;;;8.13;2.20;;;14.00;99.90;;;;;;5034057;28;20535;-75
2023/03/31 09:42:46;;;;;;;4.67;2.33;;;14.10;99.90;;;;;;5033085;28;20458;-76
2023/03/31 09:45:15;;;;;;;12.27;2.57;;;14.50;99.90;;;;;;5034944;28;20878;-75
2023/03/31 09:47:44;;;;;;;8.77;2.30;;;14.70;99.90;;;;;;5034868;28;20546;-76
2023/03/31 09:50:11;;;;;;;6.00;2.07;;;14.50;99.90;;;;;;5035114;28;20450;-75
2023/03/31 09:52:42;;;;;;;3.10;1.90;;;14.50;99.90;;;;;;5034641;28;20450;-75
2023/03/31 09:55:19;;;;;;;5.47;2.30;;;14.80;99.90;;;;;;5035059;28;20478;-75
2023/03/31 09:57:47;;;;;;;4.23;2.23;;;14.90;99.90;;;;;;5033112;28;20458;-75
2023/03/31 10:00:17;;;;;;;5.70;2.50;;;14.80;99.90;;;;;;5014539;28;20486;-75
2023/03/31 10:02:49;;;;;;;4.57;2.63;;;14.90;99.90;;;;;;5032124;28;20498;-75
2023/03/31 10:05:24;;;;;;;5.33;2.30;;;15.30;99.90;;;;;;5034625;28;20478;-76
2023/03/31 10:07:52;;;;;;;9.77;2.43;;;15.20;99.90;;;;;;5035095;28;20480;-76
2023/03/31 10:10:28;;;;;;;7.77;2.87;;;15.00;99.90;;;;;;5035018;28;20484;-75
2023/03/31 10:12:56;;;;;;;13.17;2.90;;;14.80;99.90;;;;;;5031460;28;20516;-75
2023/03/31 10:15:27;;;;;;;11.07;2.70;;;14.50;99.90;;;;;;5017472;28;20481;-76
2023/03/31 10:17:54;;;;;;;11.10;2.70;;;14.10;99.90;;;;;;5031472;28;20446;-75
2023/03/31 10:20:31;;;;;;;4.83;2.47;;;14.00;99.90;;;;;;5035205;28;20486;-75
2023/03/31 10:23:02;;;;;;;10.07;2.83;;;13.90;99.90;;;;;;5029167;28;20508;-75
2023/03/31 10:25:29;;;;;;;4.93;2.60;;;13.80;99.90;;;;;;5014106;28;20793;-75
2023/03/31 10:27:58;;;;;;;7.23;2.70;;;13.70;99.90;;;;;;5016863;28;20461;-75
2023/03/31 10:30:32;;;;;;;8.70;2.90;;;13.60;99.90;;;;;;5014941;28;20520;-74
2023/03/31 10:32:58;;;;;;;10.70;2.80;;;13.40;99.90;;;;;;5016057;28;20450;-75
2023/03/31 10:35:29;;;;;;;10.90;3.10;;;13.30;99.90;;;;;;5014021;28;20474;-74
2023/03/31 10:37:59;;;;;;;6.17;2.80;;;13.10;99.90;;;;;;5014238;28;20892;-75
2023/03/31 10:40:28;;;;;;;9.87;3.30;;;13.00;99.90;;;;;;5020838;28;20563;-75
2023/03/31 10:43:08;;;;;;;9.10;3.10;;;12.90;99.90;;;;;;5032241;28;20482;-75
2023/03/31 10:45:38;;;;;;;10.23;2.80;;;12.80;99.90;;;;;;5014553;28;20471;-75
2023/03/31 10:48:06;;;;;;;10.37;3.17;;;12.50;99.90;;;;;;5026783;28;20949;-75
2023/03/31 10:50:35;;;;;;;11.00;3.60;;;12.40;99.90;;;;;;5032779;28;20446;-75
2023/03/31 10:53:04;;;;;;;7.13;2.57;;;12.30;99.90;;;;;;5033905;28;20524;-75
2023/03/31 10:55:36;;;;;;;3.77;2.10;;;12.00;99.90;;;;;;5033114;28;20470;-74
2023/03/31 10:58:14;;;;;;;12.53;1.80;;;11.80;99.90;;;;;;5033445;28;20453;-73
2023/03/31 11:00:55;;;;;;;1.63;1.37;;;11.40;99.90;;;;;;5033155;28;20561;-74
2023/03/31 11:03:41;;;;;;;3.33;1.43;;;11.20;99.90;;;;;;5032968;28;20965;-74
2023/03/31 11:06:15;;;;;;;2.70;2.03;;;11.10;99.90;;;;;;5025693;28;20464;-74
2023/03/31 11:08:51;;;;;;;2.13;1.50;;;11.00;99.90;;;;;;5033821;28;20455;-74
2023/03/31 11:11:31;;;;;;;2.53;1.50;;;11.10;99.90;;;;;;5033773;28;20447;-74
2023/03/31 11:14:06;;;;;;;3.20;1.80;;;11.20;99.90;;;;;;5033095;28;20471;-74
2023/03/31 11:16:44;;;;;;;4.83;1.80;;;11.60;99.90;;;;;;5022602;28;20902;-74
2023/03/31 11:19:22;;;;;;;1.70;1.50;;;12.20;99.90;;;;;;5021591;28;20591;-74
2023/03/31 11:21:58;;;;;;;7.93;2.00;;;12.70;99.90;;;;;;5012842;28;20490;-75
2023/03/31 11:24:37;;;;;;;6.33;2.30;;;12.90;99.90;;;;;;5030974;28;20516;-74
2023/03/31 11:27:19;;;;;;;10.63;2.47;;;13.00;99.90;;;;;;5032252;28;20457;-75
2023/03/31 11:29:54;;;;;;;7.17;2.90;;;12.90;99.90;;;;;;5031859;28;20466;-74
2023/03/31 11:32:34;;;;;;;9.83;2.60;;;12.90;99.90;;;;;;5032994;28;20454;-74
2023/03/31 11:35:15;;;;;;;12.27;2.73;;;12.90;99.90;;;;;;5016059;28;20487;-74
2023/03/31 11:38:01;;;;;;;7.10;3.00;;;12.90;99.90;;;;;;5029562;28;20807;-74
2023/03/31 11:40:39;;;;;;;4.90;2.20;;;12.70;99.90;;;;;;5019835;28;20969;-74
2023/03/31 11:43:12;;;;;;;10.43;2.77;;;12.60;99.90;;;;;;5029521;28;20459;-74
2023/03/31 11:45:44;;;;;;;6.60;2.43;;;12.20;99.90;;;;;;5029107;28;20485;-75
2023/03/31 11:48:17;;;;;;;9.37;2.17;;;12.00;99.90;;;;;;5021290;28;20454;-75
2023/03/31 11:50:46;;;;;;;10.03;2.73;;;11.90;99.90;;;;;;5015375;28;20459;-75
2023/03/31 11:53:17;;;;;;;11.67;3.20;;;12.00;99.90;;;;;;5013416;28;20478;-75
2023/03/31 11:55:49;;;;;;;9.10;2.93;;;12.20;99.90;;;;;;5013293;28;20478;-75
2023/03/31 11:58:20;;;;;;;9.80;2.73;;;12.50;99.90;;;;;;5015554;28;20464;-75
2023/03/31 12:00:52;;;;;;;10.83;3.10;;;12.70;99.90;;;;;;5021022;28;20482;-75
2023/03/31 12:03:23;;;;;;;11.13;2.90;;;13.00;99.90;;;;;;5032864;28;20462;-75
2023/03/31 12:05:53;;;;;;;6.80;2.63;;;13.10;99.90;;;;;;5021463;28;20547;-74
2023/03/31 12:08:28;;;;;;;8.70;2.60;;;13.30;99.90;;;;;;5026126;28;20949;-74
2023/03/31 12:11:02;;;;;;;10.50;2.80;;;13.30;99.90;;;;;;5031959;28;20454;-74
2023/03/31 12:13:40;;;;;;;10.30;2.63;;;13.30;99.90;;;;;;5025304;28;20467;-75
2023/03/31 12:16:14;;;;;;;11.07;3.10;;;13.30;99.90;;;;;;5019190;28;20482;-75
2023/03/31 12:18:47;;;;;;;11.10;3.30;;;13.40;99.90;;;;;;5019172;28;20447;-75
2023/03/31 12:21:13;;;;;;;6.50;2.20;;;13.30;99.90;;;;;;5012662;28;20503;-75
2023/03/31 12:23:44;;;;;;;3.67;1.90;;;12.90;99.90;;;;;;5022196;28;20465;-74
2023/03/31 12:26:23;;;;;;;2.60;1.50;;;12.30;99.90;;;;;;5031372;28;20476;-74
2023/03/31 12:28:56;;;;;;;3.80;1.70;;;11.70;99.90;;;;;;5030858;28;20463;-73
2023/03/31 12:31:25;;;;;;;7.67;1.87;;;11.40;99.90;;;;;;5024943;28;20462;-73
2023/03/31 12:33:57;;;;;;;3.13;2.00;;;11.20;99.90;;;;;;5019626;28;20518;-73
2023/03/31 12:36:39;;;;;;;2.43;1.60;;;11.20;99.90;;;;;;5018230;28;20473;-72
2023/03/31 12:39:23;;;;;;;2.70;1.40;;;11.20;99.90;;;;;;5018216;28;20465;-73
2023/03/31 12:42:05;;;;;;;2.43;1.40;;;11.30;99.90;;;;;;5018230;28;21179;-75
2023/03/31 12:44:41;;;;;;;2.00;1.20;;;11.50;99.90;;;;;;5020243;28;20438;-75
2023/03/31 12:47:22;;;;;;;3.67;1.40;;;11.60;99.90;;;;;;5019989;28;20461;-75
2023/03/31 12:50:00;;;;;;;6.40;1.80;;;11.60;99.90;;;;;;5024533;28;20993;-74
2023/03/31 12:52:36;;;;;;;2.13;1.10;;;11.80;99.90;;;;;;5022688;28;20870;-74
2023/03/31 12:55:31;;;;;;;2.30;1.50;;;11.90;99.90;;;;;;5022439;28;20478;-74
2023/03/31 12:58:33;;;;;;;2.50;1.50;;;12.10;99.90;;;;;;5020041;28;20466;-74
2023/03/31 13:01:06;;;;;;;4.20;1.40;;;12.30;99.90;;;;;;5020713;28;20623;-74
2023/03/31 13:03:42;;;;;;;1.80;1.70;;;12.10;99.90;;;;;;5019190;28;20483;-74
2023/03/31 13:06:11;;;;;;;1.80;1.67;;;11.90;99.90;;;;;;5024004;28;21003;-73